createdAt,value
2022-08-15T00:00:31.012Z,26.94
2022-08-15T00:03:06.569Z,27.03
2022-08-15T00:05:41.396Z,26.88
2022-08-15T00:08:50.472Z,26.69
2022-08-15T00:11:21.209Z,26.76
2022-08-15T00:13:59.411Z,26.65
2022-08-15T00:16:34.405Z,26.68
2022-08-15T00:19:09.559Z,26.52
2022-08-15T00:21:42.349Z,26.58
2022-08-15T00:24:20.859Z,26.51
2022-08-15T00:26:54.901Z,26.34
2022-08-15T00:29:37.551Z,26.05
2022-08-15T00:33:14.891Z,26.20
2022-08-15T00:35:00.856Z,26.24
2022-08-15T00:37:29.126Z,26.36
2022-08-15T00:39:57.604Z,26.28
2022-08-15T00:42:29.625Z,26.37
2022-08-15T00:45:06.815Z,26.30
2022-08-15T00:47:38.947Z,26.39
2022-08-15T00:50:17.290Z,26.41
2022-08-15T00:52:57.869Z,26.40
2022-08-15T00:55:28.234Z,26.50
2022-08-15T00:58:03.960Z,26.42
2022-08-15T01:00:45.038Z,26.50
2022-08-15T01:03:24.570Z,26.43
2022-08-15T01:05:55.520Z,26.45
2022-08-15T01:08:38.866Z,26.44
2022-08-15T01:11:23.812Z,26.36
2022-08-15T01:14:04.354Z,26.41
2022-08-15T01:16:36.879Z,26.41
2022-08-15T01:19:20.861Z,26.31
2022-08-15T01:21:53.888Z,26.33
2022-08-15T01:25:15.641Z,26.04
2022-08-15T01:27:42.465Z,26.15
2022-08-15T01:30:39.662Z,26.07
2022-08-15T01:33:01.825Z,26.03
2022-08-15T01:35:31.227Z,25.88
2022-08-15T01:37:59.929Z,25.94
2022-08-15T01:41:12.963Z,25.95
2022-08-15T01:43:54.770Z,25.97
2022-08-15T01:46:25.886Z,25.83
2022-08-15T01:49:06.003Z,25.84
2022-08-15T01:51:33.556Z,25.68
2022-08-15T01:54:09.133Z,25.72
2022-08-15T01:56:45.574Z,25.82
2022-08-15T01:59:22.352Z,25.70
2022-08-15T02:02:43.036Z,25.51
2022-08-15T02:05:09.645Z,25.64
2022-08-15T02:07:38.246Z,25.66
2022-08-15T02:10:22.562Z,25.66
2022-08-15T02:13:12.531Z,25.62
2022-08-15T02:15:38.243Z,25.70
2022-08-15T02:18:06.403Z,25.55
2022-08-15T02:20:39.058Z,25.32
2022-08-15T02:23:19.799Z,25.27
2022-08-15T02:25:49.462Z,25.36
2022-08-15T02:28:34.981Z,25.35
2022-08-15T02:31:10.821Z,25.40
2022-08-15T02:33:39.238Z,25.27
2022-08-15T02:36:12.724Z,25.46
2022-08-15T02:38:47.281Z,25.55
2022-08-15T02:41:25.005Z,25.56
2022-08-15T02:43:52.875Z,25.55
2022-08-15T02:46:27.901Z,25.48
2022-08-15T02:48:59.676Z,25.25
2022-08-15T02:51:32.418Z,25.30
2022-08-15T02:54:36.455Z,25.21
2022-08-15T02:57:05.919Z,25.32
2022-08-15T02:59:34.396Z,25.45
2022-08-15T03:02:06.460Z,25.49
2022-08-15T03:04:53.930Z,25.22
2022-08-15T03:07:22.795Z,25.25
2022-08-15T03:09:56.138Z,25.05
2022-08-15T03:12:31.251Z,25.03
2022-08-15T03:15:04.366Z,24.86
2022-08-15T03:17:34.879Z,24.95
2022-08-15T03:20:06.437Z,25.06
2022-08-15T03:22:47.469Z,25.09
2022-08-15T03:25:17.889Z,24.97
2022-08-15T03:27:45.968Z,25.04
2022-08-15T03:30:19.382Z,25.02
2022-08-15T03:32:54.513Z,24.95
2022-08-15T03:35:27.748Z,25.07
2022-08-15T03:38:06.195Z,25.03
2022-08-15T03:40:35.389Z,25.07
2022-08-15T03:43:13.136Z,24.96
2022-08-15T03:45:44.793Z,24.90
2022-08-15T03:48:20.889Z,24.81
2022-08-15T03:50:59.333Z,24.75
2022-08-15T03:53:34.243Z,24.60
2022-08-15T03:56:03.468Z,24.53
2022-08-15T03:58:35.796Z,24.60
2022-08-15T04:01:07.500Z,24.52
2022-08-15T04:03:35.929Z,24.62
2022-08-15T04:06:14.351Z,24.58
2022-08-15T04:09:04.110Z,24.59
2022-08-15T04:11:35.247Z,24.62
2022-08-15T04:14:33.126Z,24.63
2022-08-15T04:17:10.624Z,24.69
2022-08-15T04:19:48.083Z,24.80
2022-08-15T04:22:28.631Z,24.80
2022-08-15T04:25:18.487Z,24.91
2022-08-15T04:27:52.988Z,24.90
2022-08-15T04:30:23.795Z,25.03
2022-08-15T04:32:59.127Z,25.08
2022-08-15T04:35:30.626Z,25.06
2022-08-15T04:38:00.014Z,25.18
2022-08-15T04:41:19.119Z,25.18
2022-08-15T04:43:20.522Z,25.22
2022-08-15T04:45:49.628Z,25.29
2022-08-15T04:48:20.718Z,25.20
2022-08-15T04:50:50.678Z,25.17
2022-08-15T04:53:30.780Z,25.31
2022-08-15T04:56:01.238Z,25.46
2022-08-15T04:58:41.312Z,25.60
2022-08-15T05:01:22.257Z,25.32
2022-08-15T05:03:54.232Z,25.42
2022-08-15T05:06:30.610Z,25.39
2022-08-15T05:09:02.563Z,25.39
2022-08-15T05:12:01.207Z,25.53
2022-08-15T05:14:36.272Z,25.67
2022-08-15T05:17:10.528Z,25.79
2022-08-15T05:19:38.790Z,25.83
2022-08-15T05:22:06.447Z,25.99
2022-08-15T05:24:34.096Z,26.08
2022-08-15T05:27:03.001Z,26.16
2022-08-15T05:29:31.811Z,26.10
2022-08-15T05:31:59.807Z,25.97
2022-08-15T05:34:43.127Z,26.01
2022-08-15T05:37:15.008Z,26.18
2022-08-15T05:39:44.101Z,26.38
2022-08-15T05:42:37.356Z,26.46
2022-08-15T05:45:34.208Z,26.58
2022-08-15T05:48:20.112Z,26.86
2022-08-15T05:51:03.291Z,26.68
2022-08-15T05:53:54.148Z,27.16
2022-08-15T05:56:22.368Z,27.52
2022-08-15T05:59:01.179Z,27.70
2022-08-15T06:01:37.440Z,27.76
2022-08-15T06:04:34.019Z,27.99
2022-08-15T06:07:07.200Z,28.18
2022-08-15T06:09:43.589Z,28.25
2022-08-15T06:12:33.526Z,28.13
2022-08-15T06:15:13.059Z,28.18
2022-08-15T06:17:43.850Z,28.34
2022-08-15T06:20:24.789Z,28.34
2022-08-15T06:23:36.725Z,28.14
2022-08-15T06:26:40.839Z,27.87
2022-08-15T06:29:18.873Z,28.00
2022-08-15T06:32:05.019Z,27.95
2022-08-15T06:35:11.756Z,28.41
2022-08-15T06:38:30.833Z,28.44
2022-08-15T06:41:07.469Z,28.60
2022-08-15T06:43:36.309Z,28.56
2022-08-15T06:46:39.951Z,28.70
2022-08-15T06:49:05.314Z,28.85
2022-08-15T06:51:44.555Z,28.90
2022-08-15T06:54:34.519Z,28.92
2022-08-15T06:57:38.879Z,29.13
2022-08-15T07:00:35.030Z,28.97
2022-08-15T07:03:06.503Z,28.63
2022-08-15T07:05:42.522Z,29.17
2022-08-15T07:08:20.925Z,29.11
2022-08-15T07:10:54.374Z,29.21
2022-08-15T07:13:30.978Z,29.51
2022-08-15T07:16:05.117Z,29.42
2022-08-15T07:18:41.799Z,29.63
2022-08-15T07:21:18.872Z,29.65
2022-08-15T07:24:33.520Z,29.58
2022-08-15T07:27:00.392Z,29.31
2022-08-15T07:29:33.004Z,29.16
2022-08-15T07:32:33.707Z,29.16
2022-08-15T07:35:19.161Z,29.39
2022-08-15T07:38:01.960Z,28.97
2022-08-15T07:40:39.849Z,29.12
2022-08-15T07:46:26.582Z,29.61
2022-08-15T07:48:59.723Z,29.22
2022-08-15T07:51:31.430Z,29.44
2022-08-15T07:54:35.095Z,29.60
2022-08-15T07:57:50.731Z,29.60
2022-08-15T08:00:37.272Z,29.19
2022-08-15T08:03:33.709Z,29.52
2022-08-15T08:06:34.932Z,29.65
2022-08-15T08:09:31.970Z,30.00
2022-08-15T08:12:30.788Z,30.01
2022-08-15T08:15:13.608Z,29.70
2022-08-15T08:18:04.001Z,30.07
2022-08-15T08:20:53.263Z,29.62
2022-08-15T08:23:49.516Z,29.91
2022-08-15T08:26:30.686Z,30.34
2022-08-15T08:29:05.717Z,30.25
2022-08-15T08:31:58.912Z,30.36
2022-08-15T08:34:49.169Z,30.23
2022-08-15T08:37:27.405Z,30.38
2022-08-15T08:40:24.643Z,30.26
2022-08-15T08:43:01.297Z,30.40
2022-08-15T08:45:51.580Z,30.72
2022-08-15T08:48:38.175Z,30.74
2022-08-15T08:51:24.010Z,30.28
2022-08-15T08:54:54.367Z,30.53
2022-08-15T08:57:27.285Z,30.79
2022-08-15T09:00:05.064Z,30.57
2022-08-15T09:02:51.768Z,30.85
2022-08-15T09:05:47.106Z,30.46
2022-08-15T09:08:29.264Z,31.00
2022-08-15T09:11:23.852Z,31.42
2022-08-15T09:13:55.584Z,31.19
2022-08-15T09:16:28.130Z,31.34
2022-08-15T09:19:05.877Z,31.23
2022-08-15T09:21:44.445Z,31.71
2022-08-15T09:24:37.252Z,31.59
2022-08-15T09:27:19.853Z,31.72
2022-08-15T09:29:59.342Z,32.33
2022-08-15T09:32:30.644Z,32.02
2022-08-15T09:35:24.765Z,31.66
2022-08-15T09:37:56.308Z,31.94
2022-08-15T09:40:58.933Z,32.33
2022-08-15T09:43:56.449Z,32.25
2022-08-15T09:47:13.180Z,31.84
2022-08-15T09:50:36.537Z,32.00
2022-08-15T09:53:24.180Z,32.22
2022-08-15T09:55:53.973Z,32.35
2022-08-15T09:58:28.184Z,32.81
2022-08-15T10:01:04.744Z,32.80
2022-08-15T10:03:48.124Z,33.15
2022-08-15T10:06:33.022Z,33.03
2022-08-15T10:09:26.963Z,32.89
2022-08-15T10:12:11.090Z,32.61
2022-08-15T10:14:44.318Z,33.17
2022-08-15T10:17:36.999Z,33.70
2022-08-15T10:20:19.038Z,33.69
2022-08-15T10:22:53.397Z,33.23
2022-08-15T10:25:29.753Z,34.10
2022-08-15T10:28:38.721Z,34.64
2022-08-15T10:31:06.648Z,34.54
2022-08-15T10:33:39.500Z,34.02
2022-08-15T10:36:30.027Z,33.95
2022-08-15T10:39:18.890Z,34.64
2022-08-15T10:41:53.355Z,34.70
2022-08-15T10:44:35.485Z,34.43
2022-08-15T10:47:28.062Z,34.00
2022-08-15T10:50:02.105Z,34.38
2022-08-15T10:52:39.517Z,33.99
2022-08-15T10:55:55.822Z,34.42
2022-08-15T10:58:33.790Z,34.67
2022-08-15T11:01:07.286Z,34.51
2022-08-15T11:04:49.966Z,34.64
2022-08-15T11:06:31.228Z,34.59
2022-08-15T11:09:09.563Z,35.25
2022-08-15T11:11:40.117Z,35.23
2022-08-15T11:14:22.236Z,34.72
2022-08-15T11:17:00.000Z,34.44
2022-08-15T11:20:09.387Z,34.04
2022-08-15T11:22:31.090Z,33.85
2022-08-15T11:25:10.033Z,33.68
2022-08-15T11:27:38.001Z,34.29
2022-08-15T11:30:21.791Z,34.65
2022-08-15T11:32:54.450Z,34.83
2022-08-15T11:35:33.189Z,34.60
2022-08-15T11:38:19.706Z,34.59
2022-08-15T11:40:55.180Z,34.61
2022-08-15T11:43:23.449Z,34.90
2022-08-15T11:45:53.689Z,34.20
2022-08-15T11:48:36.108Z,33.56
2022-08-15T11:51:09.963Z,33.60
2022-08-15T11:54:12.715Z,33.11
2022-08-15T11:57:03.314Z,33.51
2022-08-15T11:59:34.734Z,33.04
2022-08-15T12:02:31.765Z,32.87
2022-08-15T12:05:42.092Z,32.85
2022-08-15T12:08:01.372Z,33.44
2022-08-15T12:10:55.315Z,33.39
2022-08-15T12:13:34.287Z,33.17
2022-08-15T12:16:26.773Z,33.54
2022-08-15T12:18:54.854Z,33.48
2022-08-15T12:21:24.461Z,33.88
2022-08-15T12:23:57.226Z,34.00
2022-08-15T12:26:39.501Z,34.11
2022-08-15T12:29:18.839Z,34.41
2022-08-15T12:31:49.246Z,34.36
2022-08-15T12:34:26.391Z,34.43
2022-08-15T12:37:03.431Z,34.69
2022-08-15T12:39:45.839Z,34.75
2022-08-15T12:42:46.896Z,34.69
2022-08-15T12:45:17.616Z,34.16
2022-08-15T12:48:06.741Z,34.42
2022-08-15T12:50:37.203Z,34.38
2022-08-15T12:53:08.459Z,34.51
2022-08-15T12:55:42.823Z,34.74
2022-08-15T12:58:13.916Z,34.41
2022-08-15T13:00:55.396Z,33.50
2022-08-15T13:04:01.052Z,33.38
2022-08-15T13:06:38.719Z,33.04
2022-08-15T13:09:08.264Z,33.06
2022-08-15T13:11:38.517Z,33.48
2022-08-15T13:14:11.783Z,33.79
2022-08-15T13:17:09.370Z,34.19
2022-08-15T13:19:57.658Z,34.30
2022-08-15T13:22:47.181Z,34.23
2022-08-15T13:25:16.498Z,34.37
2022-08-15T13:27:45.639Z,34.38
2022-08-15T13:30:19.564Z,34.26
2022-08-15T13:32:51.780Z,34.24
2022-08-15T13:35:21.593Z,34.15
2022-08-15T13:38:01.020Z,34.31
2022-08-15T13:40:33.320Z,33.82
2022-08-15T13:43:11.714Z,33.89
2022-08-15T13:45:56.574Z,33.95
2022-08-15T13:48:38.496Z,33.97
2022-08-15T13:51:13.250Z,33.88
2022-08-15T13:56:33.344Z,33.73
2022-08-15T13:59:12.083Z,33.77
2022-08-15T14:01:47.468Z,33.78
2022-08-15T14:04:26.384Z,33.78
2022-08-15T14:06:57.417Z,33.84
2022-08-15T14:10:05.805Z,33.53
2022-08-15T14:12:15.089Z,33.61
2022-08-15T14:14:47.087Z,33.72
2022-08-15T14:17:36.797Z,33.52
2022-08-15T14:20:27.324Z,33.47
2022-08-15T14:22:58.449Z,33.57
2022-08-15T14:27:09.847Z,33.75
2022-08-15T14:31:19.407Z,33.65
2022-08-15T14:36:36.494Z,33.70
2022-08-15T14:39:05.350Z,33.59
2022-08-15T14:41:43.350Z,33.70
2022-08-15T14:44:48.464Z,33.87
2022-08-15T14:47:03.170Z,34.00
2022-08-15T14:50:54.330Z,34.16
2022-08-15T14:52:25.266Z,34.07
2022-08-15T14:54:55.641Z,34.00
2022-08-15T14:57:26.216Z,33.97
2022-08-15T14:59:58.089Z,34.02
2022-08-15T15:02:35.703Z,32.68
2022-08-15T15:05:11.048Z,32.52
2022-08-15T15:07:53.906Z,32.65
2022-08-15T15:10:30.628Z,33.08
2022-08-15T15:13:01.664Z,33.17
2022-08-15T15:15:40.079Z,33.66
2022-08-15T15:18:38.382Z,33.87
2022-08-15T15:21:01.143Z,33.74
2022-08-15T15:23:29.133Z,33.84
2022-08-15T15:25:56.818Z,34.16
2022-08-15T15:28:41.583Z,34.18
2022-08-15T15:31:11.361Z,33.78
2022-08-15T15:33:41.550Z,33.77
2022-08-15T15:36:29.720Z,33.61
2022-08-15T15:39:07.114Z,33.38
2022-08-15T15:41:47.975Z,33.91
2022-08-15T15:44:21.232Z,33.95
2022-08-15T15:46:55.011Z,34.23
2022-08-15T15:49:40.006Z,33.84
2022-08-15T15:52:19.370Z,33.54
2022-08-15T15:54:52.295Z,33.38
2022-08-15T15:57:42.587Z,33.24
2022-08-15T16:00:27.504Z,33.60
2022-08-15T16:03:01.858Z,33.61
2022-08-15T16:06:04.405Z,33.69
2022-08-15T16:08:39.772Z,34.03
2022-08-15T16:11:25.791Z,34.01
2022-08-15T16:14:03.037Z,34.04
2022-08-15T16:16:32.345Z,34.02
2022-08-15T16:19:06.985Z,33.95
2022-08-15T16:22:00.039Z,33.84
2022-08-15T16:24:50.821Z,33.95
2022-08-15T16:27:25.364Z,33.99
2022-08-15T16:29:57.990Z,33.90
2022-08-15T16:32:32.752Z,33.88
2022-08-15T16:35:15.775Z,33.54
2022-08-15T16:37:47.215Z,33.77
2022-08-15T16:41:00.226Z,33.49
2022-08-15T16:43:53.546Z,33.71
2022-08-15T16:46:41.830Z,33.35
2022-08-15T16:49:24.226Z,33.84
2022-08-15T16:52:14.675Z,33.82
2022-08-15T16:54:54.089Z,33.80
2022-08-15T16:57:28.941Z,33.80
2022-08-15T17:00:44.158Z,33.86
2022-08-15T17:03:16.497Z,33.78
2022-08-15T17:05:50.695Z,33.71
2022-08-15T17:08:22.631Z,33.69
2022-08-15T17:11:04.595Z,33.73
2022-08-15T17:14:02.535Z,33.75
2022-08-15T17:16:41.033Z,33.70
2022-08-15T17:19:10.671Z,33.67
2022-08-15T17:21:47.557Z,33.61
2022-08-15T17:24:55.694Z,33.54
2022-08-15T17:27:35.873Z,33.54
2022-08-15T17:30:53.687Z,33.50
2022-08-15T17:33:16.346Z,33.44
2022-08-15T17:35:45.834Z,33.36
2022-08-15T17:38:13.842Z,33.34
2022-08-15T17:41:06.097Z,33.30
2022-08-15T17:43:40.349Z,33.43
2022-08-15T17:46:17.586Z,33.23
2022-08-15T17:48:51.822Z,33.11
2022-08-15T17:51:32.168Z,33.02
2022-08-15T17:54:22.545Z,33.03
2022-08-15T17:57:25.332Z,33.00
2022-08-15T18:00:22.318Z,33.01
2022-08-15T18:03:04.906Z,32.85
2022-08-15T18:05:35.426Z,32.77
2022-08-15T18:08:10.720Z,32.75
2022-08-15T18:10:52.774Z,32.73
2022-08-15T18:13:24.925Z,32.70
2022-08-15T18:16:18.710Z,32.68
2022-08-15T18:18:57.497Z,32.61
2022-08-15T18:21:31.497Z,32.53
2022-08-15T18:24:38.046Z,32.39
2022-08-15T18:26:57.001Z,32.34
2022-08-15T18:29:26.832Z,32.28
2022-08-15T18:32:04.157Z,32.21
2022-08-15T18:34:53.513Z,32.10
2022-08-15T18:37:27.248Z,32.01
2022-08-15T18:40:14.902Z,31.70
2022-08-15T18:43:02.117Z,31.83
2022-08-15T18:45:44.241Z,31.60
2022-08-15T18:48:35.226Z,31.63
2022-08-15T18:51:17.097Z,31.51
2022-08-15T18:54:46.994Z,31.58
2022-08-15T18:57:15.808Z,31.59
2022-08-15T19:00:07.185Z,31.57
2022-08-15T19:02:49.684Z,31.53
2022-08-15T19:05:22.313Z,31.58
2022-08-15T19:08:26.568Z,31.49
2022-08-15T19:10:57.264Z,31.40
2022-08-15T19:13:43.567Z,31.35
2022-08-15T19:16:29.314Z,31.30
2022-08-15T19:19:11.871Z,31.28
2022-08-15T19:21:39.411Z,31.14
2022-08-15T19:24:08.237Z,31.18
2022-08-15T19:26:41.693Z,31.18
2022-08-15T19:29:35.192Z,31.15
2022-08-15T19:32:18.256Z,31.15
2022-08-15T19:35:20.214Z,31.20
2022-08-15T19:38:14.137Z,31.11
2022-08-15T19:41:14.161Z,31.07
2022-08-15T19:44:10.280Z,30.93
2022-08-15T19:47:13.389Z,30.81
2022-08-15T19:50:05.771Z,30.75
2022-08-15T19:52:43.856Z,30.67
2022-08-15T19:55:55.988Z,30.59
2022-08-15T19:58:37.350Z,30.49
2022-08-15T20:01:39.353Z,30.36
2022-08-15T20:04:44.469Z,30.23
2022-08-15T20:07:38.007Z,30.40
2022-08-15T20:10:26.375Z,30.37
2022-08-15T20:13:08.333Z,30.21
2022-08-15T20:15:55.502Z,30.10
2022-08-15T20:18:48.735Z,30.04
2022-08-15T20:21:41.400Z,30.06
2022-08-15T20:24:18.942Z,30.12
2022-08-15T20:26:54.345Z,30.13
2022-08-15T20:29:45.113Z,30.20
2022-08-15T20:32:22.665Z,30.15
2022-08-15T20:35:15.834Z,30.16
2022-08-15T20:37:49.762Z,30.16
2022-08-15T20:40:26.220Z,30.12
2022-08-15T20:43:43.159Z,30.16
2022-08-15T20:46:22.957Z,30.12
2022-08-15T20:49:14.466Z,30.04
2022-08-15T20:52:37.830Z,30.12
2022-08-15T20:54:38.616Z,29.97
2022-08-15T20:57:14.293Z,30.07
2022-08-15T21:00:03.195Z,29.87
2022-08-15T21:03:09.319Z,30.02
2022-08-15T21:06:19.112Z,29.88
2022-08-15T21:08:55.004Z,29.81
2022-08-15T21:11:42.794Z,29.82
2022-08-15T21:15:10.755Z,29.77
2022-08-15T21:17:22.635Z,29.71
2022-08-15T21:20:20.052Z,29.80
2022-08-15T21:22:50.104Z,29.83
2022-08-15T21:25:42.428Z,29.82
2022-08-15T21:28:32.565Z,29.80
2022-08-15T21:31:21.871Z,29.79
2022-08-15T21:33:53.600Z,29.87
2022-08-15T21:36:35.535Z,29.86
2022-08-15T21:39:12.149Z,29.99
2022-08-15T21:41:56.125Z,29.89
2022-08-15T21:44:31.237Z,29.82
2022-08-15T21:46:58.750Z,29.83
2022-08-15T21:49:37.019Z,29.80
2022-08-15T21:52:15.618Z,29.71
2022-08-15T21:54:56.902Z,29.72
2022-08-15T21:57:33.582Z,29.67
2022-08-15T22:00:20.350Z,29.52
2022-08-15T22:03:19.828Z,29.45
2022-08-15T22:06:01.465Z,29.44
2022-08-15T22:08:44.685Z,29.37
2022-08-15T22:11:26.021Z,29.33
2022-08-15T22:13:58.396Z,29.37
2022-08-15T22:16:38.029Z,29.28
2022-08-15T22:19:10.670Z,29.23
2022-08-15T22:21:45.785Z,29.22
2022-08-15T22:24:18.033Z,29.17
2022-08-15T22:26:51.932Z,29.01
2022-08-15T22:29:24.335Z,29.00
2022-08-15T22:32:30.397Z,28.96
2022-08-15T22:34:51.322Z,29.04
2022-08-15T22:37:20.081Z,28.84
2022-08-15T22:39:48.535Z,28.94
2022-08-15T22:42:31.073Z,28.60
2022-08-15T22:45:00.846Z,28.72
2022-08-15T22:47:28.718Z,28.82
2022-08-15T22:49:57.133Z,28.90
2022-08-15T22:52:27.583Z,28.92
2022-08-15T22:54:57.189Z,28.93
2022-08-15T22:57:57.816Z,28.99
2022-08-15T23:00:17.032Z,28.92
2022-08-15T23:02:46.213Z,29.02
2022-08-15T23:05:28.246Z,29.00
2022-08-15T23:08:07.084Z,28.62
2022-08-15T23:10:46.587Z,28.50
2022-08-15T23:14:00.176Z,28.67
2022-08-15T23:16:35.577Z,28.97
2022-08-15T23:19:22.230Z,28.95
2022-08-15T23:21:51.358Z,28.93
2022-08-15T23:24:29.879Z,28.69
2022-08-15T23:27:07.454Z,28.79
2022-08-15T23:29:38.911Z,28.72
2022-08-15T23:32:29.478Z,28.64
2022-08-15T23:35:11.564Z,28.66
2022-08-15T23:37:42.517Z,28.59
2022-08-15T23:40:27.332Z,28.25
2022-08-15T23:42:58.534Z,28.18
2022-08-15T23:45:43.427Z,28.21
2022-08-15T23:48:28.617Z,28.36
2022-08-15T23:51:03.855Z,28.38
2022-08-15T23:53:36.006Z,28.38
2022-08-15T23:56:31.795Z,28.44
2022-08-15T23:58:55.986Z,28.48
